sensor_id;sensor_type;location;lat;lon;timestamp;pressure;altitude;pressure_sealevel;temperature;humidity
24302;BME280;12421;49.732;20.078;2022-10-16T00:07:24;97066.36;;;11.83;80.03
24302;BME280;12421;49.732;20.078;2022-10-16T00:17:29;97068.48;;;11.82;80.03
24302;BME280;12421;49.732;20.078;2022-10-16T00:27:33;97079.27;;;11.78;80.12
24302;BME280;12421;49.732;20.078;2022-10-16T00:37:37;97087.57;;;11.76;80.51
24302;BME280;12421;49.732;20.078;2022-10-16T00:47:43;97091.48;;;11.85;80.67
24302;BME280;12421;49.732;20.078;2022-10-16T00:57:49;97105.63;;;11.93;80.71
24302;BME280;12421;49.732;20.078;2022-10-16T01:08:18;97108.11;;;12.04;80.66
24302;BME280;12421;49.732;20.078;2022-10-16T01:38:56;97105.54;;;12.13;81.09
24302;BME280;12421;49.732;20.078;2022-10-16T01:49:05;97110.31;;;12.23;81.40
24302;BME280;12421;49.732;20.078;2022-10-16T01:59:12;97119.20;;;12.29;81.28
24302;BME280;12421;49.732;20.078;2022-10-16T02:09:17;97123.89;;;12.45;81.22
24302;BME280;12421;49.732;20.078;2022-10-16T02:19:21;97129.93;;;12.64;80.99
24302;BME280;12421;49.732;20.078;2022-10-16T02:29:26;97138.79;;;12.72;80.52
24302;BME280;12421;49.732;20.078;2022-10-16T02:39:31;97138.61;;;12.73;80.43
24302;BME280;12421;49.732;20.078;2022-10-16T02:49:35;97136.15;;;12.72;80.17
24302;BME280;12421;49.732;20.078;2022-10-16T02:59:38;97138.11;;;12.71;79.72
24302;BME280;12421;49.732;20.078;2022-10-16T03:09:42;97142.67;;;12.49;79.65
24302;BME280;12421;49.732;20.078;2022-10-16T03:19:45;97154.16;;;12.23;79.51
24302;BME280;12421;49.732;20.078;2022-10-16T03:29:49;97151.80;;;12.00;79.64
24302;BME280;12421;49.732;20.078;2022-10-16T03:39:53;97157.77;;;11.75;79.99
24302;BME280;12421;49.732;20.078;2022-10-16T03:49:56;97169.27;;;11.49;80.01
24302;BME280;12421;49.732;20.078;2022-10-16T04:00:00;97180.38;;;11.28;80.11
24302;BME280;12421;49.732;20.078;2022-10-16T04:10:14;97193.56;;;11.09;80.48
24302;BME280;12421;49.732;20.078;2022-10-16T04:20:18;97204.59;;;10.92;80.89
24302;BME280;12421;49.732;20.078;2022-10-16T04:30:22;97210.95;;;10.88;81.40
24302;BME280;12421;49.732;20.078;2022-10-16T04:40:26;97212.66;;;10.94;81.57
24302;BME280;12421;49.732;20.078;2022-10-16T04:50:30;97213.73;;;10.91;81.52
24302;BME280;12421;49.732;20.078;2022-10-16T05:00:40;97209.77;;;10.81;81.31
24302;BME280;12421;49.732;20.078;2022-10-16T05:10:44;97225.91;;;10.57;81.36
24302;BME280;12421;49.732;20.078;2022-10-16T05:20:48;97232.83;;;10.46;81.82
24302;BME280;12421;49.732;20.078;2022-10-16T05:30:52;97233.56;;;10.42;82.32
24302;BME280;12421;49.732;20.078;2022-10-16T05:40:56;97240.91;;;10.46;82.67
24302;BME280;12421;49.732;20.078;2022-10-16T05:51:06;97251.94;;;10.52;82.99
24302;BME280;12421;49.732;20.078;2022-10-16T06:01:13;97260.41;;;10.72;83.12
24302;BME280;12421;49.732;20.078;2022-10-16T06:11:29;97273.80;;;10.93;83.12
24302;BME280;12421;49.732;20.078;2022-10-16T06:21:34;97283.38;;;11.29;83.58
24302;BME280;12421;49.732;20.078;2022-10-16T06:31:38;97285.14;;;12.04;83.20
24302;BME280;12421;49.732;20.078;2022-10-16T06:41:41;97295.92;;;12.58;82.13
24302;BME280;12421;49.732;20.078;2022-10-16T06:51:54;97300.85;;;13.12;81.52
24302;BME280;12421;49.732;20.078;2022-10-16T07:01:58;97310.81;;;13.51;80.58
24302;BME280;12421;49.732;20.078;2022-10-16T07:12:03;97326.21;;;13.90;80.14
24302;BME280;12421;49.732;20.078;2022-10-16T07:22:07;97343.05;;;14.35;79.31
24302;BME280;12421;49.732;20.078;2022-10-16T07:32:11;97347.05;;;14.83;77.39
24302;BME280;12421;49.732;20.078;2022-10-16T07:42:15;97342.63;;;15.15;75.69
24302;BME280;12421;49.732;20.078;2022-10-16T07:52:20;97343.77;;;15.51;74.14
24302;BME280;12421;49.732;20.078;2022-10-16T08:02:24;97341.81;;;16.01;73.49
24302;BME280;12421;49.732;20.078;2022-10-16T08:12:27;97338.80;;;16.67;72.42
24302;BME280;12421;49.732;20.078;2022-10-16T08:22:32;97344.83;;;17.22;71.82
24302;BME280;12421;49.732;20.078;2022-10-16T08:32:35;97359.14;;;17.80;72.13
24302;BME280;12421;49.732;20.078;2022-10-16T08:52:49;97378.04;;;18.43;67.66
24302;BME280;12421;49.732;20.078;2022-10-16T09:03:14;97379.06;;;18.59;66.24
24302;BME280;12421;49.732;20.078;2022-10-16T09:23:37;97390.02;;;19.09;63.39
24302;BME280;12421;49.732;20.078;2022-10-16T09:33:41;97403.85;;;19.44;61.40
24302;BME280;12421;49.732;20.078;2022-10-16T09:53:57;97408.77;;;19.83;60.03
24302;BME280;12421;49.732;20.078;2022-10-16T10:04:02;97406.05;;;20.05;58.73
24302;BME280;12421;49.732;20.078;2022-10-16T10:14:47;97400.83;;;20.11;57.35
24302;BME280;12421;49.732;20.078;2022-10-16T10:45:59;97400.52;;;20.01;59.69
24302;BME280;12421;49.732;20.078;2022-10-16T11:07:08;97393.32;;;20.54;57.37
24302;BME280;12421;49.732;20.078;2022-10-16T11:17:25;97386.50;;;20.71;55.50
24302;BME280;12421;49.732;20.078;2022-10-16T11:48:27;97398.58;;;20.93;57.08
24302;BME280;12421;49.732;20.078;2022-10-16T11:58:47;97400.45;;;20.91;57.27
24302;BME280;12421;49.732;20.078;2022-10-16T12:08:53;97400.11;;;20.82;56.76
24302;BME280;12421;49.732;20.078;2022-10-16T12:19:12;97395.09;;;20.66;55.89
24302;BME280;12421;49.732;20.078;2022-10-16T12:29:23;97401.66;;;20.75;55.61
24302;BME280;12421;49.732;20.078;2022-10-16T12:39:27;97401.20;;;20.94;54.70
24302;BME280;12421;49.732;20.078;2022-10-16T12:49:36;97408.57;;;21.05;53.92
24302;BME280;12421;49.732;20.078;2022-10-16T13:30:54;97420.88;;;19.74;57.85
24302;BME280;12421;49.732;20.078;2022-10-16T13:41:06;97428.92;;;19.73;57.83
24302;BME280;12421;49.732;20.078;2022-10-16T13:51:18;97428.30;;;20.19;57.58
24302;BME280;12421;49.732;20.078;2022-10-16T14:01:28;97439.64;;;20.39;57.53
24302;BME280;12421;49.732;20.078;2022-10-16T14:11:44;97447.17;;;20.25;57.76
24302;BME280;12421;49.732;20.078;2022-10-16T14:21:51;97455.04;;;19.93;58.48
24302;BME280;12421;49.732;20.078;2022-10-16T14:31:58;97462.84;;;19.67;60.01
24302;BME280;12421;49.732;20.078;2022-10-16T14:42:03;97469.13;;;19.42;60.99
24302;BME280;12421;49.732;20.078;2022-10-16T14:52:11;97465.27;;;19.20;61.56
24302;BME280;12421;49.732;20.078;2022-10-16T15:02:23;97458.30;;;18.92;61.66
24302;BME280;12421;49.732;20.078;2022-10-16T15:12:29;97453.83;;;18.51;61.09
24302;BME280;12421;49.732;20.078;2022-10-16T15:22:33;97456.48;;;18.03;60.90
24302;BME280;12421;49.732;20.078;2022-10-16T15:32:37;97461.65;;;17.68;61.33
24302;BME280;12421;49.732;20.078;2022-10-16T15:42:41;97471.45;;;17.49;62.05
24302;BME280;12421;49.732;20.078;2022-10-16T15:52:46;97490.20;;;17.26;62.16
24302;BME280;12421;49.732;20.078;2022-10-16T16:02:55;97507.81;;;17.00;63.11
24302;BME280;12421;49.732;20.078;2022-10-16T16:12:59;97515.85;;;16.71;64.00
24302;BME280;12421;49.732;20.078;2022-10-16T16:23:03;97522.89;;;16.37;64.55
24302;BME280;12421;49.732;20.078;2022-10-16T16:33:08;97542.23;;;15.97;65.35
24302;BME280;12421;49.732;20.078;2022-10-16T16:43:13;97552.34;;;15.64;66.19
24302;BME280;12421;49.732;20.078;2022-10-16T16:53:17;97566.41;;;15.32;67.09
24302;BME280;12421;49.732;20.078;2022-10-16T17:03:22;97575.61;;;14.94;67.93
24302;BME280;12421;49.732;20.078;2022-10-16T17:13:31;97581.29;;;14.51;68.84
24302;BME280;12421;49.732;20.078;2022-10-16T17:23:36;97593.88;;;14.11;69.75
24302;BME280;12421;49.732;20.078;2022-10-16T17:33:43;97610.48;;;13.69;70.46
24302;BME280;12421;49.732;20.078;2022-10-16T17:43:52;97613.51;;;13.37;71.43
24302;BME280;12421;49.732;20.078;2022-10-16T17:53:59;97619.27;;;13.08;72.19
24302;BME280;12421;49.732;20.078;2022-10-16T18:04:07;97612.00;;;12.92;72.92
24302;BME280;12421;49.732;20.078;2022-10-16T18:14:16;97635.63;;;12.69;73.58
24302;BME280;12421;49.732;20.078;2022-10-16T18:24:24;97641.41;;;12.50;74.29
24302;BME280;12421;49.732;20.078;2022-10-16T18:34:30;97654.25;;;12.26;74.86
24302;BME280;12421;49.732;20.078;2022-10-16T18:44:35;97667.09;;;11.89;75.12
24302;BME280;12421;49.732;20.078;2022-10-16T18:54:40;97682.13;;;11.66;75.82
24302;BME280;12421;49.732;20.078;2022-10-16T19:04:45;97698.34;;;11.49;76.23
24302;BME280;12421;49.732;20.078;2022-10-16T19:14:49;97715.08;;;11.31;76.82
24302;BME280;12421;49.732;20.078;2022-10-16T19:24:53;97728.63;;;11.08;77.26
24302;BME280;12421;49.732;20.078;2022-10-16T19:34:58;97744.61;;;10.84;77.46
24302;BME280;12421;49.732;20.078;2022-10-16T19:45:05;97762.66;;;10.64;78.34
24302;BME280;12421;49.732;20.078;2022-10-16T19:55:10;97770.16;;;10.48;78.71
24302;BME280;12421;49.732;20.078;2022-10-16T20:05:14;97782.73;;;10.27;78.88
24302;BME280;12421;49.732;20.078;2022-10-16T20:15:18;97783.30;;;10.05;79.38
24302;BME280;12421;49.732;20.078;2022-10-16T20:25:23;97789.88;;;9.88;79.56
24302;BME280;12421;49.732;20.078;2022-10-16T20:35:27;97802.42;;;9.73;79.66
24302;BME280;12421;49.732;20.078;2022-10-16T20:45:31;97805.00;;;9.66;79.79
24302;BME280;12421;49.732;20.078;2022-10-16T20:55:36;97815.58;;;9.51;79.81
24302;BME280;12421;49.732;20.078;2022-10-16T21:05:41;97827.33;;;9.51;80.14
24302;BME280;12421;49.732;20.078;2022-10-16T21:15:44;97831.28;;;9.40;80.19
24302;BME280;12421;49.732;20.078;2022-10-16T21:25:49;97839.21;;;9.25;80.46
24302;BME280;12421;49.732;20.078;2022-10-16T21:35:53;97851.02;;;9.15;80.59
24302;BME280;12421;49.732;20.078;2022-10-16T21:45:57;97853.10;;;9.12;80.57
24302;BME280;12421;49.732;20.078;2022-10-16T21:56:01;97863.05;;;8.93;80.37
24302;BME280;12421;49.732;20.078;2022-10-16T22:06:06;97871.94;;;8.72;81.16
24302;BME280;12421;49.732;20.078;2022-10-16T22:16:10;97879.52;;;8.76;81.43
24302;BME280;12421;49.732;20.078;2022-10-16T22:26:14;97893.38;;;8.63;81.40
24302;BME280;12421;49.732;20.078;2022-10-16T22:36:18;97901.07;;;8.49;81.71
24302;BME280;12421;49.732;20.078;2022-10-16T22:46:24;97910.24;;;8.29;81.71
24302;BME280;12421;49.732;20.078;2022-10-16T22:56:28;97909.33;;;8.25;83.12
24302;BME280;12421;49.732;20.078;2022-10-16T23:06:32;97915.19;;;8.21;83.71
24302;BME280;12421;49.732;20.078;2022-10-16T23:16:36;97913.65;;;8.12;84.00
24302;BME280;12421;49.732;20.078;2022-10-16T23:26:40;97927.50;;;8.03;83.65
24302;BME280;12421;49.732;20.078;2022-10-16T23:36:44;97934.73;;;8.07;83.63
24302;BME280;12421;49.732;20.078;2022-10-16T23:46:47;97944.26;;;8.01;82.99
24302;BME280;12421;49.732;20.078;2022-10-16T23:56:52;97949.76;;;7.84;82.54
